Time;durP1;ratioP1;P1;durP2;ratioP2;P2;SDS_P1;SDS_P2;PMS_P1;PMS_P2;Temp;Humidity;BMP_temperature;BMP_pressure;BME280_temperature;BME280_humidity;BME280_pressure;Samples;Min_cycle;Max_cycle;Signal;HPM_P1;HPM_P2
2022/08/01 00:01:12;;;;;;;4.13;2.95;;;;;;;;;;5108128;28;20044;-76
2022/08/01 00:03:39;;;;;;;4.95;2.92;;;;;;;;;;5099952;28;20044;-76
2022/08/01 00:06:05;;;;;;;5.28;3.40;;;;;;;;;;5092400;28;20417;-76
2022/08/01 00:08:32;;;;;;;7.07;3.03;;;;;;;;;;5108567;28;20044;-76
2022/08/01 00:10:58;;;;;;;5.78;3.22;;;;;;;;;;5091617;28;20393;-76
2022/08/01 00:13:25;;;;;;;5.20;3.58;;;;;;;;;;5108585;28;20047;-76
2022/08/01 00:15:51;;;;;;;6.97;3.80;;;;;;;;;;5074222;28;20128;-76
2022/08/01 00:18:17;;;;;;;4.95;3.83;;;;;;;;;;5091267;28;20036;-76
2022/08/01 00:20:43;;;;;;;6.50;3.58;;;;;;;;;;5088575;28;20093;-76
2022/08/01 00:23:10;;;;;;;8.00;4.70;;;;;;;;;;5091441;28;20511;-76
2022/08/01 00:25:36;;;;;;;5.70;3.60;;;;;;;;;;5108403;28;20083;-76
2022/08/01 00:28:02;;;;;;;29.45;5.05;;;;;;;;;;5091514;28;20051;-76
2022/08/01 00:30:28;;;;;;;5.50;3.50;;;;;;;;;;5083690;28;20065;-76
2022/08/01 00:32:54;;;;;;;7.13;3.92;;;;;;;;;;5083421;28;20094;-76
2022/08/01 00:35:20;;;;;;;6.32;3.30;;;;;;;;;;5089532;28;20154;-76
2022/08/01 00:37:46;;;;;;;5.90;3.55;;;;;;;;;;5108220;28;20464;-76
2022/08/01 00:40:13;;;;;;;8.07;3.65;;;;;;;;;;5107490;28;20089;-75
2022/08/01 00:42:39;;;;;;;7.13;4.20;;;;;;;;;;5107772;28;20043;-76
2022/08/01 00:45:05;;;;;;;7.43;4.07;;;;;;;;;;5090502;28;20505;-76
2022/08/01 00:47:31;;;;;;;6.75;4.05;;;;;;;;;;5091858;28;20041;-76
2022/08/01 00:49:57;;;;;;;5.43;3.20;;;;;;;;;;5090810;28;20048;-76
2022/08/01 00:52:24;;;;;;;4.68;2.97;;;;;;;;;;5090499;28;20089;-76
2022/08/01 00:54:50;;;;;;;5.97;3.13;;;;;;;;;;5090504;28;20412;-76
2022/08/01 00:57:16;;;;;;;5.53;2.60;;;;;;;;;;5073657;28;20040;-76
2022/08/01 00:59:43;;;;;;;5.60;2.63;;;;;;;;;;5073693;28;20123;-76
2022/08/01 01:02:09;;;;;;;5.55;2.40;;;;;;;;;;5090966;28;20068;-75
2022/08/01 01:04:35;;;;;;;4.93;1.98;;;;;;;;;;5107584;28;20550;-76
2022/08/01 01:07:07;;;;;;;3.20;2.17;;;;;;;;;;5088522;28;20036;-75
2022/08/01 01:09:39;;;;;;;3.28;2.20;;;;;;;;;;5086401;28;20032;-75
2022/08/01 01:12:05;;;;;;;3.03;1.98;;;;;;;;;;5106979;28;20381;-76
2022/08/01 01:14:46;;;;;;;4.05;2.40;;;;;;;;;;5107063;28;20489;-75
2022/08/01 01:17:15;;;;;;;3.50;2.10;;;;;;;;;;5096945;28;20041;-75
2022/08/01 01:19:45;;;;;;;5.00;2.40;;;;;;;;;;5072528;28;20119;-75
2022/08/01 01:22:22;;;;;;;4.25;2.22;;;;;;;;;;5089314;28;20040;-76
2022/08/01 01:25:07;;;;;;;3.45;1.92;;;;;;;;;;5106501;28;20112;-75
2022/08/01 01:27:55;;;;;;;4.70;2.85;;;;;;;;;;5086191;28;20189;-76
2022/08/01 01:30:22;;;;;;;5.15;2.58;;;;;;;;;;5068795;28;20060;-76
2022/08/01 01:32:50;;;;;;;4.05;2.55;;;;;;;;;;5098654;28;20113;-76
2022/08/01 01:35:23;;;;;;;3.95;2.10;;;;;;;;;;5094064;28;20173;-76
2022/08/01 01:37:51;;;;;;;7.03;2.72;;;;;;;;;;5065830;28;20115;-76
2022/08/01 01:40:18;;;;;;;5.53;3.25;;;;;;;;;;5104590;28;20046;-76
2022/08/01 01:42:44;;;;;;;5.25;2.88;;;;;;;;;;5081636;28;20166;-75
2022/08/01 01:45:11;;;;;;;5.53;2.78;;;;;;;;;;5081074;28;20048;-76
2022/08/01 01:47:38;;;;;;;5.88;3.25;;;;;;;;;;5070193;28;20059;-76
2022/08/01 01:50:06;;;;;;;8.27;3.28;;;;;;;;;;5079907;28;20052;-76
2022/08/01 01:52:32;;;;;;;5.43;3.25;;;;;;;;;;5103534;28;20481;-76
2022/08/01 01:55:00;;;;;;;10.82;3.42;;;;;;;;;;5072411;28;20062;-76
2022/08/01 01:57:27;;;;;;;6.45;2.75;;;;;;;;;;5072864;28;20127;-76
2022/08/01 01:59:53;;;;;;;10.40;3.53;;;;;;;;;;5086469;28;20583;-76
2022/08/01 02:02:20;;;;;;;10.20;3.20;;;;;;;;;;5069226;28;20076;-76
2022/08/01 02:04:48;;;;;;;7.25;3.78;;;;;;;;;;5087697;28;20036;-76
2022/08/01 02:07:17;;;;;;;7.70;3.00;;;;;;;;;;5086877;28;20054;-75
2022/08/01 02:09:44;;;;;;;6.20;3.10;;;;;;;;;;5105671;28;20059;-76
2022/08/01 02:12:11;;;;;;;7.15;3.15;;;;;;;;;;5071927;28;20046;-76
2022/08/01 02:14:39;;;;;;;4.57;2.72;;;;;;;;;;5105938;28;20529;-76
2022/08/01 02:17:06;;;;;;;8.50;2.83;;;;;;;;;;5095614;28;20301;-76
2022/08/01 02:19:35;;;;;;;8.13;3.30;;;;;;;;;;5105120;28;20063;-76
2022/08/01 02:22:04;;;;;;;6.95;2.85;;;;;;;;;;5104118;28;20377;-75
2022/08/01 02:24:31;;;;;;;8.27;3.33;;;;;;;;;;5090471;28;20028;-76
2022/08/01 02:27:00;;;;;;;8.40;2.85;;;;;;;;;;5105438;28;20039;-76
2022/08/01 02:29:37;;;;;;;5.05;2.60;;;;;;;;;;5105094;28;20043;-76
2022/08/01 02:32:04;;;;;;;9.43;3.75;;;;;;;;;;5097562;28;20058;-76
2022/08/01 02:34:33;;;;;;;8.25;3.30;;;;;;;;;;5063116;28;20036;-76
2022/08/01 02:37:01;;;;;;;9.55;3.53;;;;;;;;;;5088547;28;20100;-76
2022/08/01 02:39:29;;;;;;;8.02;3.40;;;;;;;;;;5105374;28;20465;-76
2022/08/01 02:41:58;;;;;;;7.55;3.47;;;;;;;;;;5085818;28;20086;-75
2022/08/01 02:44:26;;;;;;;5.70;2.75;;;;;;;;;;5088427;28;20036;-76
2022/08/01 02:47:02;;;;;;;8.02;3.20;;;;;;;;;;5089571;28;20059;-76
2022/08/01 02:49:33;;;;;;;7.82;2.90;;;;;;;;;;5085125;28;20070;-76
2022/08/01 02:52:01;;;;;;;10.15;3.83;;;;;;;;;;5103370;28;20566;-76
2022/08/01 02:54:29;;;;;;;10.40;3.70;;;;;;;;;;5076923;28;20540;-75
2022/08/01 02:56:56;;;;;;;12.50;5.15;;;;;;;;;;5071443;28;20101;-76
2022/08/01 02:59:25;;;;;;;13.00;5.88;;;;;;;;;;5105125;28;20051;-75
2022/08/01 03:01:52;;;;;;;12.82;7.13;;;;;;;;;;5104022;28;20082;-76
2022/08/01 03:04:19;;;;;;;15.80;7.10;;;;;;;;;;5104840;28;20044;-75
2022/08/01 03:06:46;;;;;;;18.77;8.07;;;;;;;;;;5088826;28;20275;-76
2022/08/01 03:09:13;;;;;;;18.17;9.70;;;;;;;;;;5078294;28;20051;-76
2022/08/01 03:11:41;;;;;;;17.33;11.20;;;;;;;;;;5088030;28;20377;-76
2022/08/01 03:14:08;;;;;;;23.90;12.48;;;;;;;;;;5088009;28;20048;-76
2022/08/01 03:16:36;;;;;;;26.25;12.52;;;;;;;;;;5085983;28;20093;-76
2022/08/01 03:19:02;;;;;;;24.13;12.73;;;;;;;;;;5087782;28;20036;-77
2022/08/01 03:21:30;;;;;;;20.65;11.73;;;;;;;;;;5070131;28;20052;-76
2022/08/01 03:23:58;;;;;;;24.00;12.00;;;;;;;;;;5089382;28;20040;-76
2022/08/01 03:26:26;;;;;;;27.83;12.63;;;;;;;;;;5104555;28;20065;-76
2022/08/01 03:28:56;;;;;;;35.60;14.32;;;;;;;;;;5104662;28;20504;-76
2022/08/01 03:31:22;;;;;;;38.03;14.77;;;;;;;;;;5072238;28;20051;-76
2022/08/01 03:33:49;;;;;;;35.60;16.25;;;;;;;;;;5092443;28;20039;-76
2022/08/01 03:36:15;;;;;;;36.50;18.55;;;;;;;;;;5090616;28;20040;-76
2022/08/01 03:38:43;;;;;;;41.75;21.35;;;;;;;;;;5108650;28;20036;-76
2022/08/01 03:41:10;;;;;;;44.75;21.48;;;;;;;;;;5073886;28;20566;-76
2022/08/01 03:43:41;;;;;;;49.22;27.15;;;;;;;;;;5092131;28;20071;-76
2022/08/01 03:46:09;;;;;;;41.88;21.85;;;;;;;;;;5092039;28;20427;-76
2022/08/01 03:48:43;;;;;;;42.15;21.33;;;;;;;;;;5074309;28;20040;-76
2022/08/01 03:51:10;;;;;;;43.22;21.65;;;;;;;;;;5085772;28;20132;-76
2022/08/01 03:53:37;;;;;;;46.17;20.85;;;;;;;;;;5103530;28;20059;-76
2022/08/01 03:56:04;;;;;;;39.92;19.52;;;;;;;;;;5108382;28;20079;-76
2022/08/01 03:58:31;;;;;;;42.80;17.25;;;;;;;;;;5106137;28;20454;-75
2022/08/01 04:00:59;;;;;;;29.95;15.23;;;;;;;;;;5062783;28;20120;-76
2022/08/01 04:03:25;;;;;;;28.52;14.93;;;;;;;;;;5084236;28;20402;-76
2022/08/01 04:05:51;;;;;;;25.13;12.30;;;;;;;;;;5106402;28;20072;-75
2022/08/01 04:08:17;;;;;;;18.30;10.07;;;;;;;;;;5108315;28;20075;-76
2022/08/01 04:10:43;;;;;;;24.83;11.05;;;;;;;;;;5073936;28;20040;-76
2022/08/01 04:13:10;;;;;;;21.02;9.77;;;;;;;;;;5108274;28;20078;-76
2022/08/01 04:15:36;;;;;;;24.30;9.88;;;;;;;;;;5107623;28;20135;-75
2022/08/01 04:18:06;;;;;;;21.55;10.63;;;;;;;;;;5098659;28;20448;-75
2022/08/01 04:20:35;;;;;;;21.40;7.88;;;;;;;;;;5089495;28;20109;-75
2022/08/01 04:23:01;;;;;;;16.83;7.38;;;;;;;;;;5108013;28;20046;-75
2022/08/01 04:25:30;;;;;;;16.88;7.00;;;;;;;;;;5108002;28;20040;-76
2022/08/01 04:27:57;;;;;;;14.48;5.95;;;;;;;;;;5080323;28;20557;-76
2022/08/01 04:30:26;;;;;;;18.48;6.03;;;;;;;;;;5107080;28;20448;-75
2022/08/01 04:32:54;;;;;;;11.48;5.10;;;;;;;;;;5091199;28;20489;-75
2022/08/01 04:35:22;;;;;;;13.13;4.97;;;;;;;;;;5082019;28;20051;-76
2022/08/01 04:37:48;;;;;;;17.58;4.53;;;;;;;;;;5107845;28;20040;-75
2022/08/01 04:40:15;;;;;;;17.88;4.93;;;;;;;;;;5090653;28;20044;-75
2022/08/01 04:42:41;;;;;;;16.67;4.60;;;;;;;;;;5070423;28;20067;-75
2022/08/01 04:45:08;;;;;;;14.50;4.70;;;;;;;;;;5103981;28;20040;-75
2022/08/01 04:47:35;;;;;;;13.70;5.13;;;;;;;;;;5101322;28;20092;-76
2022/08/01 04:50:06;;;;;;;12.70;5.00;;;;;;;;;;5090056;28;20040;-76
2022/08/01 04:52:35;;;;;;;20.73;6.50;;;;;;;;;;5099391;28;20047;-75
2022/08/01 04:55:02;;;;;;;13.60;6.40;;;;;;;;;;5085137;28;20090;-75
2022/08/01 04:57:28;;;;;;;9.50;4.00;;;;;;;;;;5107223;28;20092;-76
2022/08/01 04:59:56;;;;;;;18.27;4.57;;;;;;;;;;5073332;28;20044;-76
2022/08/01 05:02:23;;;;;;;15.65;5.43;;;;;;;;;;5107196;28;20039;-75
2022/08/01 05:04:49;;;;;;;12.93;4.70;;;;;;;;;;5106326;28;20067;-75
2022/08/01 05:07:15;;;;;;;12.57;5.03;;;;;;;;;;5107166;28;20516;-76
2022/08/01 05:09:42;;;;;;;15.07;4.95;;;;;;;;;;5106904;28;20123;-76
2022/08/01 05:12:09;;;;;;;18.60;5.40;;;;;;;;;;5088353;28;20507;-75
2022/08/01 05:14:35;;;;;;;14.32;4.68;;;;;;;;;;5106638;28;20035;-75
2022/08/01 05:17:03;;;;;;;12.98;4.68;;;;;;;;;;5067470;28;20113;-76
2022/08/01 05:19:33;;;;;;;10.45;5.18;;;;;;;;;;5083063;28;20044;-76
2022/08/01 05:22:00;;;;;;;14.05;5.13;;;;;;;;;;5080511;28;20044;-76
2022/08/01 05:24:29;;;;;;;13.35;4.07;;;;;;;;;;5078553;28;20538;-75
2022/08/01 05:26:56;;;;;;;14.32;5.32;;;;;;;;;;5093824;28;20091;-76
2022/08/01 05:29:22;;;;;;;7.57;4.28;;;;;;;;;;5083186;28;20048;-76
2022/08/01 05:31:48;;;;;;;16.92;4.70;;;;;;;;;;5082026;28;20341;-75
2022/08/01 05:34:14;;;;;;;23.25;4.45;;;;;;;;;;5080776;28;20048;-75
2022/08/01 05:36:41;;;;;;;12.93;4.85;;;;;;;;;;5100238;28;20374;-75
2022/08/01 05:39:07;;;;;;;15.43;4.15;;;;;;;;;;5081467;28;20604;-75
2022/08/01 05:41:34;;;;;;;13.02;4.85;;;;;;;;;;5103366;28;20040;-75
2022/08/01 05:44:00;;;;;;;12.98;4.22;;;;;;;;;;5088115;28;20497;-75
2022/08/01 05:46:26;;;;;;;14.68;5.45;;;;;;;;;;5079172;28;20509;-75
2022/08/01 05:48:52;;;;;;;11.10;5.43;;;;;;;;;;5064898;28;20507;-75
2022/08/01 05:51:18;;;;;;;13.80;4.28;;;;;;;;;;5101942;28;20076;-75
2022/08/01 05:53:45;;;;;;;16.33;4.82;;;;;;;;;;5100235;28;20127;-75
2022/08/01 05:56:11;;;;;;;14.65;5.30;;;;;;;;;;5074419;28;20622;-75
2022/08/01 05:58:37;;;;;;;8.90;4.20;;;;;;;;;;5103250;28;20505;-75
2022/08/01 06:01:04;;;;;;;10.35;4.75;;;;;;;;;;5104643;28;20443;-75
2022/08/01 06:03:31;;;;;;;26.05;5.63;;;;;;;;;;5106082;28;20528;-75
2022/08/01 06:05:58;;;;;;;13.48;5.05;;;;;;;;;;5104375;28;20043;-75
2022/08/01 06:08:24;;;;;;;24.13;4.88;;;;;;;;;;5105948;28;20089;-76
2022/08/01 06:10:50;;;;;;;10.60;4.68;;;;;;;;;;5105510;28;20040;-76
2022/08/01 06:13:17;;;;;;;19.95;5.35;;;;;;;;;;5105967;28;20067;-75
2022/08/01 06:15:44;;;;;;;9.27;4.47;;;;;;;;;;5105170;28;20276;-75
2022/08/01 06:18:10;;;;;;;14.90;5.00;;;;;;;;;;5072353;28;20622;-75
2022/08/01 06:20:36;;;;;;;8.65;4.22;;;;;;;;;;5070449;28;20093;-75
2022/08/01 06:23:02;;;;;;;9.57;4.13;;;;;;;;;;5097769;28;20040;-75
2022/08/01 06:25:28;;;;;;;16.00;4.43;;;;;;;;;;5082645;28;20036;-75
2022/08/01 06:27:55;;;;;;;13.02;3.97;;;;;;;;;;5065739;28;20076;-76
2022/08/01 06:30:21;;;;;;;12.43;4.28;;;;;;;;;;5104419;28;20048;-75
2022/08/01 06:32:47;;;;;;;13.13;4.13;;;;;;;;;;5054976;28;20079;-75
2022/08/01 06:35:14;;;;;;;12.60;4.40;;;;;;;;;;5070572;28;20058;-76
2022/08/01 06:37:41;;;;;;;11.63;4.25;;;;;;;;;;5088584;28;20155;-76
2022/08/01 06:40:08;;;;;;;14.55;4.60;;;;;;;;;;5105030;28;20040;-75
2022/08/01 06:42:35;;;;;;;10.10;3.63;;;;;;;;;;5104921;28;20118;-76
2022/08/01 06:45:22;;;;;;;18.40;5.20;;;;;;;;;;5104908;28;20123;-76
2022/08/01 06:47:48;;;;;;;11.25;4.40;;;;;;;;;;5103802;28;20052;-75
2022/08/01 06:50:14;;;;;;;20.63;4.55;;;;;;;;;;5042520;28;20075;-75
2022/08/01 06:52:41;;;;;;;12.75;4.07;;;;;;;;;;5088399;28;20113;-75
2022/08/01 06:55:07;;;;;;;12.93;4.13;;;;;;;;;;5104645;28;20083;-76
2022/08/01 06:57:34;;;;;;;10.13;3.80;;;;;;;;;;5089500;28;20066;-76
2022/08/01 07:00:11;;;;;;;10.52;4.10;;;;;;;;;;5103529;28;20119;-76
2022/08/01 07:02:37;;;;;;;6.07;3.03;;;;;;;;;;5104746;28;20032;-75
2022/08/01 07:05:03;;;;;;;8.85;3.45;;;;;;;;;;5101226;28;20151;-76
2022/08/01 07:07:30;;;;;;;8.75;3.65;;;;;;;;;;5086291;28;20047;-76
2022/08/01 07:09:56;;;;;;;10.18;3.80;;;;;;;;;;5100044;28;20045;-75
2022/08/01 07:12:22;;;;;;;11.35;3.85;;;;;;;;;;5086312;28;20130;-76
2022/08/01 07:14:48;;;;;;;8.35;4.00;;;;;;;;;;5071571;28;20135;-75
2022/08/01 07:17:14;;;;;;;13.02;4.40;;;;;;;;;;5060353;28;20117;-75
2022/08/01 07:19:41;;;;;;;6.60;3.70;;;;;;;;;;5104646;28;20377;-75
2022/08/01 07:22:07;;;;;;;15.20;4.57;;;;;;;;;;5070274;28;20512;-75
2022/08/01 07:24:33;;;;;;;15.20;3.45;;;;;;;;;;5084815;28;20504;-75
2022/08/01 07:26:59;;;;;;;16.52;3.58;;;;;;;;;;5089075;28;20040;-75
2022/08/01 07:29:25;;;;;;;9.32;2.95;;;;;;;;;;5086372;28;20075;-76
2022/08/01 07:31:56;;;;;;;12.32;4.45;;;;;;;;;;5097507;28;20537;-76
2022/08/01 07:34:23;;;;;;;17.23;4.15;;;;;;;;;;5087865;28;20040;-76
2022/08/01 07:36:49;;;;;;;17.33;4.18;;;;;;;;;;5082188;28;20125;-75
2022/08/01 07:39:15;;;;;;;9.70;2.85;;;;;;;;;;5084906;28;20550;-76
2022/08/01 07:41:41;;;;;;;12.38;3.50;;;;;;;;;;5088893;28;20121;-75
2022/08/01 07:44:08;;;;;;;8.35;3.45;;;;;;;;;;5089476;28;20126;-75
2022/08/01 07:46:34;;;;;;;7.03;3.10;;;;;;;;;;5103811;28;20123;-75
2022/08/01 07:49:00;;;;;;;11.05;4.25;;;;;;;;;;5084184;28;20058;-76
2022/08/01 07:51:26;;;;;;;10.57;3.83;;;;;;;;;;5085257;28;20047;-76
2022/08/01 07:53:52;;;;;;;10.15;3.33;;;;;;;;;;5070884;28;20052;-75
2022/08/01 07:56:20;;;;;;;11.73;3.83;;;;;;;;;;5104479;28;20497;-76
2022/08/01 07:58:48;;;;;;;8.63;3.88;;;;;;;;;;5101375;28;20040;-75
2022/08/01 08:01:14;;;;;;;10.52;3.80;;;;;;;;;;5104060;28;20051;-75
2022/08/01 08:03:40;;;;;;;16.90;3.97;;;;;;;;;;5104314;28;20109;-76
2022/08/01 08:06:06;;;;;;;9.80;3.53;;;;;;;;;;5102754;28;20093;-76
2022/08/01 08:08:34;;;;;;;11.15;3.58;;;;;;;;;;5104212;28;20398;-76
2022/08/01 08:11:00;;;;;;;12.27;3.63;;;;;;;;;;5104285;28;20055;-75
2022/08/01 08:13:27;;;;;;;8.32;2.75;;;;;;;;;;5088724;28;20051;-75
2022/08/01 08:15:53;;;;;;;7.28;2.65;;;;;;;;;;5083608;28;20488;-76
2022/08/01 08:18:19;;;;;;;12.75;3.65;;;;;;;;;;5090470;28;20134;-75
2022/08/01 08:20:46;;;;;;;8.57;3.00;;;;;;;;;;5094655;28;20036;-75
2022/08/01 08:25:56;;;;;;;11.77;3.42;;;;;;;;;;5090865;28;20043;-76
2022/08/01 08:28:23;;;;;;;6.15;2.80;;;;;;;;;;5091240;28;20052;-76
2022/08/01 08:30:50;;;;;;;6.22;2.80;;;;;;;;;;5090603;28;20055;-75
2022/08/01 08:33:17;;;;;;;7.47;2.72;;;;;;;;;;5070654;28;20083;-76
2022/08/01 08:35:43;;;;;;;16.98;3.10;;;;;;;;;;5086741;28;20047;-76
2022/08/01 08:38:09;;;;;;;13.90;3.17;;;;;;;;;;5107055;28;20055;-75
2022/08/01 08:40:36;;;;;;;7.45;2.88;;;;;;;;;;5101288;28;20494;-76
2022/08/01 08:43:04;;;;;;;6.80;2.75;;;;;;;;;;5090501;28;20044;-75
2022/08/01 08:45:30;;;;;;;15.85;3.17;;;;;;;;;;5107341;28;20097;-75
2022/08/01 08:47:57;;;;;;;9.20;2.80;;;;;;;;;;5091916;28;20050;-76
2022/08/01 08:50:23;;;;;;;8.65;3.10;;;;;;;;;;5089358;28;20059;-76
2022/08/01 08:52:50;;;;;;;12.00;4.13;;;;;;;;;;5091766;28;20044;-75
2022/08/01 08:55:17;;;;;;;6.38;2.63;;;;;;;;;;5090460;28;20101;-76
2022/08/01 08:57:44;;;;;;;6.60;2.55;;;;;;;;;;5082044;28;20032;-75
2022/08/01 09:00:11;;;;;;;12.93;3.83;;;;;;;;;;5106674;28;20040;-75
2022/08/01 09:02:42;;;;;;;10.05;2.83;;;;;;;;;;5092038;28;20116;-76
2022/08/01 09:05:09;;;;;;;11.10;3.10;;;;;;;;;;5075142;28;20089;-75
2022/08/01 09:07:35;;;;;;;10.63;2.92;;;;;;;;;;5107271;28;20047;-76
2022/08/01 09:10:01;;;;;;;7.70;2.90;;;;;;;;;;5104141;28;20399;-76
2022/08/01 09:12:27;;;;;;;15.60;3.38;;;;;;;;;;5105550;28;20044;-75
2022/08/01 09:14:53;;;;;;;6.60;2.58;;;;;;;;;;5106790;28;20131;-76
2022/08/01 09:17:20;;;;;;;7.68;3.28;;;;;;;;;;5073078;28;20039;-76
2022/08/01 09:19:47;;;;;;;9.40;2.55;;;;;;;;;;5089907;28;20028;-76
2022/08/01 09:22:17;;;;;;;6.38;2.40;;;;;;;;;;5091070;28;20046;-75
2022/08/01 09:25:03;;;;;;;10.88;2.83;;;;;;;;;;5106843;28;20405;-75
2022/08/01 09:27:30;;;;;;;7.82;3.47;;;;;;;;;;5089872;28;20036;-77
2022/08/01 09:30:07;;;;;;;8.18;2.60;;;;;;;;;;5103730;28;20051;-76
2022/08/01 09:32:33;;;;;;;6.28;2.65;;;;;;;;;;5075523;28;20044;-75
2022/08/01 09:35:19;;;;;;;4.28;2.28;;;;;;;;;;5105680;28;20559;-76
2022/08/01 09:37:45;;;;;;;6.53;2.42;;;;;;;;;;5075899;28;20088;-76
2022/08/01 09:40:11;;;;;;;4.40;1.83;;;;;;;;;;5083798;28;20173;-75
2022/08/01 09:42:37;;;;;;;9.65;2.42;;;;;;;;;;5083773;28;20097;-76
2022/08/01 09:45:03;;;;;;;4.32;1.77;;;;;;;;;;5092512;28;20108;-76
2022/08/01 09:47:39;;;;;;;5.13;2.58;;;;;;;;;;5085267;28;20063;-76
2022/08/01 09:50:06;;;;;;;4.85;2.17;;;;;;;;;;5083445;28;20103;-76
2022/08/01 09:52:33;;;;;;;9.48;2.20;;;;;;;;;;5087305;28;20181;-76
2022/08/01 09:55:00;;;;;;;5.97;2.08;;;;;;;;;;5100099;28;20059;-76
2022/08/01 09:57:28;;;;;;;10.23;2.45;;;;;;;;;;5099303;28;20614;-76
2022/08/01 09:59:55;;;;;;;4.35;1.65;;;;;;;;;;5073068;28;20036;-75
2022/08/01 10:02:32;;;;;;;12.10;2.88;;;;;;;;;;5087166;28;20031;-75
2022/08/01 10:05:00;;;;;;;6.95;2.08;;;;;;;;;;5068380;28;20577;-77
2022/08/01 10:07:27;;;;;;;9.05;3.13;;;;;;;;;;5069331;28;20031;-76
2022/08/01 10:09:53;;;;;;;5.35;1.77;;;;;;;;;;5087531;28;20402;-76
2022/08/01 10:12:21;;;;;;;4.97;2.50;;;;;;;;;;5087276;28;20040;-76
2022/08/01 10:14:55;;;;;;;6.05;1.92;;;;;;;;;;5097871;28;20035;-76
2022/08/01 10:17:24;;;;;;;6.80;2.03;;;;;;;;;;5097111;28;20077;-76
2022/08/01 10:19:54;;;;;;;4.65;1.67;;;;;;;;;;5086212;28;20036;-76
2022/08/01 10:22:23;;;;;;;3.90;1.95;;;;;;;;;;5085079;28;20044;-77
2022/08/01 10:24:50;;;;;;;7.38;1.85;;;;;;;;;;5087189;28;20036;-76
2022/08/01 10:27:18;;;;;;;4.85;2.55;;;;;;;;;;5086828;28;20393;-77
2022/08/01 10:29:50;;;;;;;8.80;2.72;;;;;;;;;;5104648;28;20481;-76
2022/08/01 10:32:16;;;;;;;9.85;2.10;;;;;;;;;;5087126;28;20570;-76
2022/08/01 10:34:43;;;;;;;7.05;2.35;;;;;;;;;;5095224;28;20389;-77
2022/08/01 10:37:10;;;;;;;5.10;1.90;;;;;;;;;;5104489;28;20059;-76
2022/08/01 10:39:37;;;;;;;9.13;2.13;;;;;;;;;;5085045;28;20032;-76
2022/08/01 10:42:03;;;;;;;4.45;2.22;;;;;;;;;;5086614;28;20040;-77
2022/08/01 10:44:30;;;;;;;10.38;2.60;;;;;;;;;;5101741;28;20501;-76
2022/08/01 10:47:00;;;;;;;4.28;1.58;;;;;;;;;;5063152;28;20468;-76
2022/08/01 10:49:28;;;;;;;6.10;1.92;;;;;;;;;;5088275;28;20549;-77
2022/08/01 10:51:54;;;;;;;7.38;1.98;;;;;;;;;;5086684;28;20349;-77
2022/08/01 10:54:24;;;;;;;7.47;2.65;;;;;;;;;;5071551;28;20071;-76
2022/08/01 10:56:51;;;;;;;8.80;2.38;;;;;;;;;;5104967;28;20048;-76
2022/08/01 10:59:23;;;;;;;5.07;1.77;;;;;;;;;;5104992;28;20127;-77
2022/08/01 11:01:59;;;;;;;4.50;2.00;;;;;;;;;;5086083;28;20481;-76
2022/08/01 11:04:33;;;;;;;5.78;1.70;;;;;;;;;;5077686;28;20070;-76
2022/08/01 11:07:07;;;;;;;11.77;2.40;;;;;;;;;;5103815;28;20046;-76
2022/08/01 11:09:41;;;;;;;5.38;2.22;;;;;;;;;;5105169;28;20263;-76
2022/08/01 11:12:11;;;;;;;4.88;2.05;;;;;;;;;;5083754;28;20047;-76
2022/08/01 11:14:56;;;;;;;7.25;2.22;;;;;;;;;;5105001;28;20040;-76
2022/08/01 11:17:33;;;;;;;3.00;1.55;;;;;;;;;;5104638;28;20048;-76
2022/08/01 11:20:10;;;;;;;3.03;1.55;;;;;;;;;;5078151;28;20046;-77
2022/08/01 11:22:55;;;;;;;9.63;2.72;;;;;;;;;;5088231;28;20032;-76
2022/08/01 11:25:21;;;;;;;9.75;3.15;;;;;;;;;;5088378;28;20055;-77
2022/08/01 11:27:47;;;;;;;5.47;1.63;;;;;;;;;;5105058;28;20119;-76
2022/08/01 11:30:13;;;;;;;4.30;1.90;;;;;;;;;;5070835;28;20184;-76
2022/08/01 11:32:46;;;;;;;5.38;1.80;;;;;;;;;;5064709;28;20054;-77
2022/08/01 11:35:13;;;;;;;2.72;1.75;;;;;;;;;;5085533;28;20036;-75
2022/08/01 11:37:39;;;;;;;6.93;1.85;;;;;;;;;;5068706;28;20047;-76
2022/08/01 11:40:25;;;;;;;3.55;1.50;;;;;;;;;;5087894;28;20040;-75
2022/08/01 11:43:12;;;;;;;4.95;2.03;;;;;;;;;;5087031;28;20027;-76
2022/08/01 11:45:51;;;;;;;4.78;2.05;;;;;;;;;;5085829;28;20094;-76
2022/08/01 11:48:22;;;;;;;5.20;1.80;;;;;;;;;;5101929;28;20104;-76
2022/08/01 11:50:50;;;;;;;8.98;1.80;;;;;;;;;;5100627;28;20052;-76
2022/08/01 11:53:18;;;;;;;5.05;1.65;;;;;;;;;;5105476;28;20130;-76
2022/08/01 11:55:47;;;;;;;7.75;2.08;;;;;;;;;;5087926;28;20036;-76
2022/08/01 11:58:13;;;;;;;5.60;2.15;;;;;;;;;;5089457;28;20040;-77
2022/08/01 12:00:39;;;;;;;7.55;1.75;;;;;;;;;;5105736;28;20093;-77
2022/08/01 12:03:06;;;;;;;6.55;1.70;;;;;;;;;;5084646;28;20548;-76
2022/08/01 12:05:34;;;;;;;6.70;1.60;;;;;;;;;;5066381;28;20101;-76
2022/08/01 12:08:00;;;;;;;5.13;1.75;;;;;;;;;;5086956;28;20125;-75
2022/08/01 12:10:28;;;;;;;3.72;1.65;;;;;;;;;;5088197;28;20433;-77
2022/08/01 12:12:56;;;;;;;8.80;2.33;;;;;;;;;;5091074;28;20630;-76
2022/08/01 12:15:23;;;;;;;7.55;1.58;;;;;;;;;;5085509;28;20036;-76
2022/08/01 12:17:51;;;;;;;7.75;2.15;;;;;;;;;;5060724;28;20044;-76
2022/08/01 12:20:20;;;;;;;6.28;1.80;;;;;;;;;;5080966;28;20092;-76
2022/08/01 12:22:47;;;;;;;9.50;2.55;;;;;;;;;;5079436;28;20068;-76
2022/08/01 12:25:17;;;;;;;5.38;1.50;;;;;;;;;;5081829;28;20512;-76
2022/08/01 12:27:44;;;;;;;7.07;1.80;;;;;;;;;;5084298;28;20119;-76
2022/08/01 12:30:11;;;;;;;6.20;1.77;;;;;;;;;;5104004;28;20132;-76
2022/08/01 12:32:38;;;;;;;6.63;1.90;;;;;;;;;;5101048;28;20042;-76
2022/08/01 12:35:09;;;;;;;4.43;1.80;;;;;;;;;;5103401;28;20109;-76
2022/08/01 12:37:46;;;;;;;4.85;1.60;;;;;;;;;;5088787;28;20080;-76
2022/08/01 12:40:13;;;;;;;8.73;2.67;;;;;;;;;;5070629;28;20047;-76
2022/08/01 12:42:44;;;;;;;6.15;1.88;;;;;;;;;;5066172;28;20039;-76
2022/08/01 12:45:12;;;;;;;7.60;2.33;;;;;;;;;;5064206;28;20044;-76
2022/08/01 12:47:40;;;;;;;5.55;2.13;;;;;;;;;;5085089;28;20043;-76
2022/08/01 12:50:08;;;;;;;6.60;2.45;;;;;;;;;;5098548;28;20052;-76
2022/08/01 12:52:34;;;;;;;6.47;1.55;;;;;;;;;;5081450;28;20032;-76
2022/08/01 12:55:04;;;;;;;4.15;1.52;;;;;;;;;;5068800;28;20109;-76
2022/08/01 12:57:30;;;;;;;3.45;1.80;;;;;;;;;;5107085;28;20078;-76
2022/08/01 13:00:07;;;;;;;5.50;1.90;;;;;;;;;;5073601;28;20123;-77
2022/08/01 13:02:34;;;;;;;4.07;1.80;;;;;;;;;;5064327;28;20039;-76
2022/08/01 13:05:00;;;;;;;6.15;2.05;;;;;;;;;;5089374;28;20062;-76
2022/08/01 13:07:46;;;;;;;4.65;1.45;;;;;;;;;;5096778;28;20085;-76
2022/08/01 13:10:13;;;;;;;5.95;1.67;;;;;;;;;;5071322;28;20040;-76
2022/08/01 13:12:40;;;;;;;5.22;1.80;;;;;;;;;;5107254;28;20474;-76
2022/08/01 13:15:20;;;;;;;5.78;1.90;;;;;;;;;;5073303;28;20047;-76
2022/08/01 13:17:48;;;;;;;11.68;1.55;;;;;;;;;;5090131;28;20118;-76
2022/08/01 13:20:43;;;;;;;5.25;1.70;;;;;;;;;;5088813;28;20044;-76
2022/08/01 13:23:17;;;;;;;5.22;1.60;;;;;;;;;;5081185;28;20083;-76
2022/08/01 13:25:47;;;;;;;5.75;1.92;;;;;;;;;;5090144;28;20036;-76
2022/08/01 13:28:17;;;;;;;7.45;2.50;;;;;;;;;;5073321;28;20359;-76
2022/08/01 13:31:00;;;;;;;3.42;1.67;;;;;;;;;;5089797;28;20242;-76
2022/08/01 13:33:27;;;;;;;10.23;2.38;;;;;;;;;;5090222;28;20058;-76
2022/08/01 13:35:54;;;;;;;7.35;2.03;;;;;;;;;;5071650;28;20119;-76
2022/08/01 13:39:39;;;;;;;5.00;1.90;;;;;;;;;;5073129;28;20507;-76
2022/08/01 13:41:07;;;;;;;4.03;1.85;;;;;;;;;;5102161;28;20182;-76
2022/08/01 13:43:34;;;;;;;7.60;2.42;;;;;;;;;;5090906;28;20044;-76
2022/08/01 13:46:04;;;;;;;3.78;1.48;;;;;;;;;;5105921;28;20055;-76
2022/08/01 13:48:31;;;;;;;5.35;2.05;;;;;;;;;;5094048;28;20541;-76
2022/08/01 13:50:57;;;;;;;3.80;1.50;;;;;;;;;;5082290;28;20036;-76
2022/08/01 13:53:24;;;;;;;6.80;2.10;;;;;;;;;;5085402;28;20285;-76
2022/08/01 13:55:50;;;;;;;3.90;1.70;;;;;;;;;;5106045;28;20055;-76
2022/08/01 13:58:16;;;;;;;3.45;1.85;;;;;;;;;;5086052;28;20083;-75
2022/08/01 14:00:43;;;;;;;2.65;1.83;;;;;;;;;;5090455;28;20043;-76
2022/08/01 14:03:09;;;;;;;5.93;1.60;;;;;;;;;;5089615;28;20036;-76
2022/08/01 14:05:36;;;;;;;4.53;1.73;;;;;;;;;;5089178;28;20031;-76
2022/08/01 14:08:02;;;;;;;3.15;1.63;;;;;;;;;;5106233;28;20071;-76
2022/08/01 14:10:29;;;;;;;6.38;1.77;;;;;;;;;;5105325;28;20130;-76
2022/08/01 14:12:58;;;;;;;6.68;1.90;;;;;;;;;;5090201;28;20460;-76
2022/08/01 14:15:25;;;;;;;5.50;1.65;;;;;;;;;;5071380;28;20048;-77
2022/08/01 14:17:51;;;;;;;3.22;1.23;;;;;;;;;;5101992;28;20286;-77
2022/08/01 14:20:20;;;;;;;5.57;2.00;;;;;;;;;;5086942;28;20423;-76
2022/08/01 14:22:47;;;;;;;9.13;1.83;;;;;;;;;;5059778;28;20047;-76
2022/08/01 14:25:14;;;;;;;7.03;1.98;;;;;;;;;;5088646;28;20035;-76
2022/08/01 14:27:41;;;;;;;5.22;1.80;;;;;;;;;;5089090;28;20485;-76
2022/08/01 14:30:08;;;;;;;4.55;1.52;;;;;;;;;;5087268;28;20036;-77
2022/08/01 14:32:34;;;;;;;9.30;1.70;;;;;;;;;;5090024;28;20051;-76
2022/08/01 14:35:02;;;;;;;4.97;1.98;;;;;;;;;;5101744;28;20516;-77
2022/08/01 14:37:28;;;;;;;3.55;1.65;;;;;;;;;;5105554;28;20496;-76
2022/08/01 14:39:55;;;;;;;3.70;1.50;;;;;;;;;;5105001;28;20123;-77
2022/08/01 14:42:21;;;;;;;4.45;1.70;;;;;;;;;;5082831;28;20040;-77
2022/08/01 14:44:47;;;;;;;4.43;1.73;;;;;;;;;;5086686;28;20037;-76
2022/08/01 14:47:13;;;;;;;2.83;1.20;;;;;;;;;;5090728;28;20048;-77